createdAt,value
2022-12-01T00:00:45.032Z,54.10
2022-12-01T00:05:46.708Z,61.88
2022-12-01T00:10:48.372Z,55.30
2022-12-01T00:15:49.956Z,50.97
2022-12-01T00:20:51.535Z,37.55
2022-12-01T00:25:53.145Z,53.10
2022-12-01T00:30:54.681Z,45.35
2022-12-01T00:35:56.183Z,57.28
2022-12-01T00:40:57.728Z,56.15
2022-12-01T00:45:59.394Z,50.83
2022-12-01T00:51:01.033Z,47.70
2022-12-01T00:56:02.644Z,37.55
2022-12-01T01:01:04.310Z,60.22
2022-12-01T01:06:06.077Z,21.27
2022-12-01T01:11:07.686Z,51.03
2022-12-01T01:16:09.367Z,59.95
2022-12-01T01:21:11.050Z,45.63
2022-12-01T01:26:12.668Z,49.75
2022-12-01T01:31:14.355Z,49.53
2022-12-01T01:36:15.982Z,37.05
2022-12-01T01:41:17.558Z,34.42
2022-12-01T01:46:19.712Z,38.05
2022-12-01T01:51:21.567Z,25.67
2022-12-01T01:56:23.206Z,23.20
2022-12-01T02:01:24.804Z,23.10
2022-12-01T02:06:26.420Z,22.42
2022-12-01T02:11:28.025Z,51.28
2022-12-01T02:16:29.680Z,54.33
2022-12-01T02:21:31.273Z,52.58
2022-12-01T02:26:32.839Z,47.75
2022-12-01T02:31:34.457Z,51.28
2022-12-01T02:36:36.025Z,45.10
2022-12-01T02:41:37.663Z,43.35
2022-12-01T02:46:39.255Z,43.13
2022-12-01T02:51:40.843Z,44.25
2022-12-01T02:56:42.476Z,44.03
2022-12-01T03:01:44.130Z,44.53
2022-12-01T03:06:45.804Z,51.00
2022-12-01T03:11:47.308Z,49.78
2022-12-01T03:16:48.853Z,50.58
2022-12-01T03:21:50.512Z,48.08
2022-12-01T03:26:52.110Z,44.65
2022-12-01T03:31:53.719Z,47.17
2022-12-01T03:36:55.273Z,55.53
2022-12-01T03:41:56.927Z,52.33
2022-12-01T03:46:58.512Z,58.75
2022-12-01T03:52:00.121Z,57.45
2022-12-01T03:57:01.743Z,54.85
2022-12-01T04:02:03.509Z,46.00
2022-12-01T04:07:05.279Z,50.55
2022-12-01T04:12:06.888Z,51.03
2022-12-01T04:17:08.547Z,57.63
2022-12-01T04:22:10.199Z,48.92
2022-12-01T04:27:11.781Z,52.55
2022-12-01T04:32:13.383Z,50.50
2022-12-01T04:37:14.967Z,54.13
2022-12-01T04:42:16.494Z,54.30
2022-12-01T04:47:18.059Z,48.00
2022-12-01T04:52:19.701Z,54.05
2022-12-01T04:57:21.368Z,53.17
2022-12-01T05:02:23.015Z,56.55
2022-12-01T05:07:24.668Z,53.72
2022-12-01T05:12:26.361Z,52.20
2022-12-01T05:17:31.538Z,56.88
2022-12-01T05:23:03.913Z,54.20
2022-12-01T05:27:57.176Z,54.50
2022-12-01T05:32:58.714Z,56.90
2022-12-01T05:38:04.575Z,53.55
2022-12-01T05:43:09.135Z,55.70
2022-12-01T05:48:10.741Z,57.90
2022-12-01T05:53:12.317Z,55.13
2022-12-01T05:58:13.917Z,56.72
2022-12-01T06:03:15.438Z,54.95
2022-12-01T06:08:17.045Z,57.60
2022-12-01T06:13:18.664Z,57.25
2022-12-01T06:18:21.729Z,59.88
2022-12-01T06:23:27.601Z,59.47
2022-12-01T06:28:31.613Z,63.95
2022-12-01T06:33:33.211Z,66.28
2022-12-01T06:38:34.853Z,63.67
2022-12-01T06:43:36.416Z,59.53
2022-12-01T06:48:37.915Z,64.25
2022-12-01T06:53:39.591Z,61.40
2022-12-01T06:58:41.120Z,59.55
2022-12-01T07:03:42.762Z,58.88
2022-12-01T07:08:44.325Z,66.38
2022-12-01T07:13:45.820Z,53.42
2022-12-01T07:18:47.278Z,61.60
2022-12-01T07:23:48.849Z,61.00
2022-12-01T07:28:50.354Z,57.05
2022-12-01T07:33:51.870Z,62.45
2022-12-01T07:38:53.366Z,57.67
2022-12-01T07:43:54.839Z,59.78
2022-12-01T07:48:56.397Z,70.53
2022-12-01T07:53:57.893Z,61.17
2022-12-01T07:58:59.353Z,64.78
2022-12-01T08:04:00.835Z,54.90
2022-12-01T08:09:02.388Z,61.75
2022-12-01T08:14:03.979Z,65.28
2022-12-01T08:19:05.542Z,50.00
2022-12-01T08:24:07.123Z,66.05
2022-12-01T08:29:08.729Z,60.38
2022-12-01T08:34:10.286Z,59.95
2022-12-01T08:39:11.886Z,61.95
2022-12-01T08:44:13.485Z,57.28
2022-12-01T08:49:15.145Z,56.55
2022-12-01T08:54:16.634Z,57.20
2022-12-01T08:59:18.096Z,55.33
2022-12-01T09:04:19.633Z,55.50
2022-12-01T09:09:21.130Z,59.97
2022-12-01T09:14:22.902Z,52.63
2022-12-01T09:19:25.526Z,52.60
2022-12-01T09:24:27.081Z,57.50
2022-12-01T09:29:28.589Z,54.80
2022-12-01T09:34:30.106Z,48.78
2022-12-01T09:39:31.765Z,56.85
2022-12-01T09:44:33.447Z,58.30
2022-12-01T09:49:35.064Z,60.83
2022-12-01T09:54:36.688Z,53.85
2022-12-01T09:59:38.261Z,59.80
2022-12-01T10:04:39.804Z,59.05
2022-12-01T10:09:41.340Z,57.90
2022-12-01T10:14:42.892Z,52.67
2022-12-01T10:19:44.387Z,56.38
2022-12-01T10:24:46.095Z,58.08
2022-12-01T10:29:48.173Z,54.38
2022-12-01T10:34:49.818Z,58.92
2022-12-01T10:39:51.694Z,54.78
2022-12-01T10:44:53.652Z,53.35
2022-12-01T10:49:55.184Z,53.10
2022-12-01T10:54:56.671Z,48.38
2022-12-01T10:59:58.191Z,45.92
2022-12-01T11:04:59.684Z,47.58
2022-12-01T11:10:01.167Z,46.47
2022-12-01T11:15:02.661Z,38.05
2022-12-01T11:20:04.720Z,48.03
2022-12-01T11:25:06.614Z,44.92
2022-12-01T11:30:08.245Z,42.30
2022-12-01T11:35:09.746Z,38.30
2022-12-01T11:40:11.700Z,49.88
2022-12-01T11:45:13.582Z,42.38
2022-12-01T11:50:15.108Z,44.40
2022-12-01T11:55:16.854Z,42.25
2022-12-01T12:00:18.412Z,42.42
2022-12-01T12:05:19.899Z,35.50
2022-12-01T12:10:21.390Z,32.35
2022-12-01T12:15:22.911Z,34.38
2022-12-01T12:20:24.386Z,40.67
2022-12-01T12:25:25.911Z,34.08
2022-12-01T12:30:27.398Z,34.30
2022-12-01T12:35:28.895Z,27.10
2022-12-01T12:40:30.398Z,36.65
2022-12-01T12:45:31.945Z,16.48
2022-12-01T12:50:33.442Z,34.65
2022-12-01T12:55:34.983Z,37.53
2022-12-01T13:00:36.525Z,45.00
2022-12-01T13:05:38.075Z,44.72
2022-12-01T13:10:39.671Z,38.33
2022-12-01T13:15:41.322Z,30.67
2022-12-01T13:20:42.963Z,38.85
2022-12-01T13:25:44.548Z,10.43
2022-12-01T13:30:46.310Z,40.40
2022-12-01T13:36:01.341Z,39.88
2022-12-01T13:41:09.451Z,41.58
2022-12-01T13:46:11.185Z,24.92
2022-12-01T13:51:12.950Z,31.58
2022-12-01T13:56:14.582Z,40.35
2022-12-01T14:01:16.288Z,37.55
2022-12-01T14:06:18.055Z,34.38
2022-12-01T14:11:19.568Z,19.52
2022-12-01T14:16:21.205Z,46.53
2022-12-01T14:21:22.793Z,36.38
2022-12-01T14:26:24.280Z,35.08
2022-12-01T14:31:25.805Z,32.80
2022-12-01T14:36:27.340Z,38.65
2022-12-01T14:41:28.870Z,33.80
2022-12-01T14:46:30.841Z,33.20
2022-12-01T14:51:33.453Z,29.77
2022-12-01T14:56:35.062Z,41.13
2022-12-01T15:01:36.669Z,21.95
2022-12-01T15:06:38.278Z,32.25
2022-12-01T15:11:39.792Z,41.10
2022-12-01T15:16:41.433Z,35.08
2022-12-01T15:21:43.112Z,50.90
2022-12-01T15:26:45.937Z,39.90
2022-12-01T15:31:51.069Z,34.28
2022-12-01T15:36:52.788Z,34.42
2022-12-01T15:41:54.364Z,41.25
2022-12-01T15:46:55.873Z,34.63
2022-12-01T15:51:57.439Z,33.40
2022-12-01T15:56:59.119Z,35.20
2022-12-01T16:02:00.735Z,23.50
2022-12-01T16:07:02.313Z,27.95
2022-12-01T16:12:04.062Z,35.20
2022-12-01T16:17:05.744Z,39.55
2022-12-01T16:22:07.454Z,37.63
2022-12-01T16:27:09.155Z,45.58
2022-12-01T16:32:26.431Z,36.88
2022-12-01T16:37:28.186Z,47.03
2022-12-01T16:42:29.754Z,45.70
2022-12-01T16:47:31.259Z,42.05
2022-12-01T16:52:48.015Z,42.15
2022-12-01T16:57:49.545Z,30.70
2022-12-01T17:02:51.114Z,36.78
2022-12-01T17:07:52.747Z,43.08
2022-12-01T17:18:16.537Z,29.35
2022-12-01T17:23:24.152Z,37.25
2022-12-01T17:28:28.127Z,24.75
2022-12-01T17:33:29.616Z,25.15
2022-12-01T17:38:31.125Z,31.38
2022-12-01T17:43:32.631Z,40.50
2022-12-01T17:48:34.136Z,42.03
2022-12-01T17:53:36.419Z,16.90
2022-12-01T17:58:38.809Z,21.02
2022-12-01T18:03:40.508Z,33.50
2022-12-01T22:59:16.804Z,26.90
2022-12-01T23:04:18.314Z,26.75
2022-12-01T23:09:19.764Z,23.02
2022-12-01T23:14:21.235Z,24.30
2022-12-01T23:19:22.720Z,27.25
2022-12-01T23:24:24.162Z,29.33
2022-12-01T23:29:25.608Z,8.70
2022-12-01T23:34:27.049Z,20.92
2022-12-01T23:39:28.506Z,30.88
2022-12-01T23:44:29.956Z,32.47
2022-12-01T23:49:31.436Z,36.22
2022-12-01T23:54:32.890Z,37.80
2022-12-01T23:59:34.346Z,28.52
